createdAt,value
2023-02-06T00:02:27.820Z,41.85
2023-02-06T00:04:56.689Z,54.25
2023-02-06T00:07:25.861Z,55.13
2023-02-06T00:09:54.953Z,42.33
2023-02-06T00:12:24.360Z,57.47
2023-02-06T00:14:54.896Z,43.42
2023-02-06T00:17:24.113Z,53.38
2023-02-06T00:19:52.898Z,56.33
2023-02-06T00:22:22.053Z,57.03
2023-02-06T00:24:51.128Z,57.53
2023-02-06T00:27:20.750Z,57.63
2023-02-06T00:29:50.065Z,57.47
2023-02-06T00:32:20.743Z,44.13
2023-02-06T00:34:49.475Z,57.30
2023-02-06T00:37:18.732Z,58.72
2023-02-06T00:39:47.755Z,57.38
2023-02-06T00:42:16.755Z,59.65
2023-02-06T00:44:47.006Z,59.00
2023-02-06T00:47:17.563Z,59.63
2023-02-06T00:49:48.685Z,63.20
2023-02-06T00:52:17.636Z,60.97
2023-02-06T00:54:48.516Z,62.95
2023-02-06T00:57:17.603Z,63.00
2023-02-06T00:59:46.609Z,51.00
2023-02-06T01:02:15.707Z,64.53
2023-02-06T01:04:44.334Z,63.88
2023-02-06T01:07:14.933Z,64.60
2023-02-06T01:09:43.982Z,61.33
2023-02-06T01:12:13.128Z,60.85
2023-02-06T01:14:42.481Z,45.30
2023-02-06T01:17:13.857Z,60.10
2023-02-06T01:19:42.574Z,59.28
2023-02-06T01:22:12.460Z,57.75
2023-02-06T01:24:43.044Z,58.80
2023-02-06T01:27:12.999Z,59.38
2023-02-06T01:29:43.385Z,56.25
2023-02-06T01:32:12.479Z,45.80
2023-02-06T01:34:41.171Z,55.45
2023-02-06T01:37:11.091Z,56.25
2023-02-06T01:39:42.634Z,55.42
2023-02-06T01:42:12.629Z,54.80
2023-02-06T01:44:41.770Z,55.30
2023-02-06T01:47:11.741Z,42.30
2023-02-06T01:49:43.208Z,51.67
2023-02-06T01:52:16.671Z,50.85
2023-02-06T01:54:51.333Z,56.35
2023-02-06T01:57:21.598Z,53.42
2023-02-06T01:59:55.681Z,54.40
2023-02-06T02:02:27.355Z,55.83
2023-02-06T02:04:56.268Z,54.28
2023-02-06T02:07:27.974Z,56.08
2023-02-06T02:09:58.493Z,60.65
2023-02-06T02:12:30.146Z,57.65
2023-02-06T02:14:59.720Z,61.65
2023-02-06T02:17:34.659Z,59.58
2023-02-06T02:20:24.051Z,60.47
2023-02-06T02:23:02.742Z,59.30
2023-02-06T02:26:21.951Z,59.30
2023-02-06T02:29:26.579Z,57.30
2023-02-06T02:32:26.269Z,53.75
2023-02-06T02:35:16.028Z,56.10
2023-02-06T02:37:55.505Z,60.80
2023-02-06T02:40:27.999Z,59.95
2023-02-06T02:43:05.297Z,60.05
2023-02-06T02:45:39.477Z,58.00
2023-02-06T02:48:12.790Z,56.88
2023-02-06T02:50:43.754Z,59.60
2023-02-06T02:53:13.307Z,59.45
2023-02-06T02:55:42.411Z,62.50
2023-02-06T02:58:15.267Z,63.05
2023-02-06T03:00:47.592Z,61.45
2023-02-06T03:03:20.726Z,58.85
2023-02-06T03:05:59.833Z,64.05
2023-02-06T03:08:33.790Z,59.92
2023-02-06T03:11:10.239Z,62.92
2023-02-06T03:13:41.250Z,59.40
2023-02-06T03:16:14.421Z,62.40
2023-02-06T03:18:46.037Z,65.63
2023-02-06T03:21:21.142Z,64.50
2023-02-06T03:23:52.791Z,63.75
2023-02-06T03:26:24.433Z,61.63
2023-02-06T03:28:54.818Z,66.68
2023-02-06T03:31:28.184Z,67.47
2023-02-06T03:34:00.980Z,63.97
2023-02-06T03:36:31.630Z,66.97
2023-02-06T03:39:00.785Z,65.15
2023-02-06T03:41:36.215Z,50.17
2023-02-06T03:44:10.134Z,62.95
2023-02-06T03:46:39.306Z,67.75
2023-02-06T03:49:09.836Z,68.63
2023-02-06T03:51:43.510Z,70.32
2023-02-06T03:54:13.677Z,69.63
2023-02-06T03:56:46.206Z,69.05
2023-02-06T03:59:15.542Z,71.15
2023-02-06T04:01:45.832Z,65.95
2023-02-06T04:04:16.252Z,65.25
2023-02-06T04:06:46.847Z,66.35
2023-02-06T04:09:15.901Z,70.22
2023-02-06T04:11:44.971Z,49.45
2023-02-06T04:14:14.267Z,55.43
2023-02-06T04:16:43.022Z,68.55
2023-02-06T04:19:12.097Z,68.57
2023-02-06T04:21:41.186Z,52.17
2023-02-06T04:24:11.687Z,52.77
2023-02-06T04:26:40.778Z,70.50
2023-02-06T04:29:09.847Z,69.87
2023-02-06T04:31:38.605Z,68.65
2023-02-06T04:34:08.033Z,69.15
2023-02-06T04:36:37.103Z,70.00
2023-02-06T04:39:07.321Z,66.67
2023-02-06T04:41:37.891Z,68.25
2023-02-06T04:44:07.119Z,64.30
2023-02-06T04:46:36.816Z,65.45
2023-02-06T04:49:06.095Z,68.22
2023-02-06T04:51:35.199Z,51.80
2023-02-06T04:54:04.567Z,65.22
2023-02-06T04:56:33.978Z,73.03
2023-02-06T04:59:04.584Z,63.08
2023-02-06T05:01:34.159Z,66.97
2023-02-06T05:04:03.363Z,64.10
2023-02-06T05:06:32.624Z,48.67
2023-02-06T05:09:02.060Z,47.30
2023-02-06T05:11:31.454Z,43.78
2023-02-06T05:14:00.519Z,46.22
2023-02-06T05:16:30.796Z,64.32
2023-02-06T05:18:59.943Z,68.07
2023-02-06T05:21:29.081Z,75.77
2023-02-06T05:23:58.236Z,55.22
2023-02-06T05:26:28.096Z,65.05
2023-02-06T05:28:56.867Z,64.72
2023-02-06T05:31:26.151Z,65.03
2023-02-06T05:33:56.826Z,60.92
2023-02-06T05:36:26.093Z,60.30
2023-02-06T05:38:55.177Z,43.50
2023-02-06T05:41:25.187Z,48.15
2023-02-06T05:43:53.958Z,63.47
2023-02-06T05:46:23.210Z,61.17
2023-02-06T05:48:52.542Z,77.28
2023-02-06T05:51:23.145Z,60.63
2023-02-06T05:53:52.304Z,80.20
2023-02-06T05:56:21.367Z,66.13
2023-02-06T05:58:50.157Z,73.22
2023-02-06T06:01:19.260Z,83.97
2023-02-06T06:03:48.417Z,80.60
2023-02-06T06:06:17.399Z,79.60
2023-02-06T06:08:47.917Z,77.88
2023-02-06T06:11:17.575Z,68.82
2023-02-06T06:13:46.373Z,69.83
2023-02-06T06:16:15.594Z,66.60
2023-02-06T06:18:44.599Z,70.05
2023-02-06T06:21:13.620Z,68.20
2023-02-06T06:23:43.671Z,62.60
2023-02-06T06:28:42.599Z,50.47
2023-02-06T06:31:13.074Z,45.67
2023-02-06T06:33:43.075Z,57.13
2023-02-06T06:36:14.475Z,53.47
2023-02-06T06:38:43.748Z,54.67
2023-02-06T06:41:14.287Z,40.10
2023-02-06T06:43:42.991Z,54.05
2023-02-06T06:46:12.302Z,48.40
2023-02-06T06:48:41.409Z,42.72
2023-02-06T06:51:10.489Z,51.53
2023-02-06T06:53:41.050Z,46.70
2023-02-06T06:56:13.723Z,54.42
2023-02-06T06:58:42.596Z,49.95
2023-02-06T07:01:11.726Z,40.30
2023-02-06T07:03:46.180Z,52.73
2023-02-06T07:06:16.929Z,50.17
2023-02-06T07:08:45.986Z,56.33
2023-02-06T07:11:18.427Z,51.58
2023-02-06T07:13:47.603Z,51.17
2023-02-06T07:16:16.761Z,41.42
2023-02-06T07:18:45.876Z,48.47
2023-02-06T07:21:16.013Z,47.67
2023-02-06T07:26:13.782Z,47.75
2023-02-06T07:28:43.891Z,48.95
2023-02-06T07:31:13.071Z,51.17
2023-02-06T07:33:42.375Z,45.80
2023-02-06T07:36:12.427Z,48.60
2023-02-06T07:41:12.398Z,46.75
2023-02-06T07:43:41.426Z,45.83
2023-02-06T07:46:12.052Z,37.83
2023-02-06T07:48:41.059Z,44.60
2023-02-06T07:51:10.830Z,48.83
2023-02-06T07:53:40.189Z,45.85
2023-02-06T07:56:13.597Z,38.33
2023-02-06T07:58:42.526Z,45.80
2023-02-06T08:01:13.007Z,44.33
2023-02-06T08:03:42.081Z,46.03
2023-02-06T08:06:11.954Z,45.70
2023-02-06T08:08:41.053Z,50.28
2023-02-06T08:11:11.334Z,48.05
2023-02-06T08:13:40.085Z,59.38
2023-02-06T08:16:12.040Z,53.28
2023-02-06T08:18:42.593Z,52.88
2023-02-06T08:21:14.537Z,51.25
2023-02-06T08:23:44.858Z,55.30
2023-02-06T08:26:16.345Z,56.83
2023-02-06T08:28:45.659Z,54.03
2023-02-06T08:31:16.662Z,48.58
2023-02-06T08:33:47.632Z,51.20
2023-02-06T08:36:20.728Z,51.95
2023-02-06T08:38:52.068Z,52.17
2023-02-06T08:41:22.534Z,45.72
2023-02-06T08:43:52.871Z,43.28
2023-02-06T08:46:23.268Z,45.83
2023-02-06T08:48:58.183Z,43.40
2023-02-06T08:51:28.147Z,47.67
2023-02-06T08:54:00.554Z,44.35
2023-02-06T08:56:30.786Z,49.38
2023-02-06T08:59:00.669Z,49.92
2023-02-06T09:01:30.895Z,50.58
2023-02-06T09:04:03.199Z,50.38
2023-02-06T09:06:32.849Z,47.88
2023-02-06T09:09:01.890Z,46.38
2023-02-06T09:11:31.440Z,47.45
2023-02-06T09:14:02.926Z,46.53
2023-02-06T09:16:33.353Z,42.17
2023-02-06T09:19:04.273Z,38.38
2023-02-06T09:21:35.508Z,40.42
2023-02-06T09:24:06.308Z,42.97
2023-02-06T09:26:44.849Z,41.28
2023-02-06T09:29:22.761Z,42.55
2023-02-06T09:31:51.618Z,42.92
2023-02-06T09:34:22.141Z,42.38
2023-02-06T09:36:51.201Z,39.72
2023-02-06T09:39:20.251Z,41.20
2023-02-06T09:41:51.000Z,39.42
2023-02-06T09:44:22.544Z,37.33
2023-02-06T09:46:53.572Z,40.20
2023-02-06T09:49:27.292Z,43.05
2023-02-06T09:52:14.385Z,41.20
2023-02-06T09:54:49.465Z,43.58
2023-02-06T09:57:22.407Z,43.17
2023-02-06T09:59:56.057Z,40.42
2023-02-06T10:02:38.098Z,43.15
2023-02-06T10:05:13.439Z,40.97
2023-02-06T10:07:57.401Z,44.92
2023-02-06T10:10:35.045Z,41.40
2023-02-06T10:13:07.235Z,43.08
2023-02-06T10:15:40.614Z,44.20
2023-02-06T10:18:14.767Z,42.72
2023-02-06T10:20:51.627Z,42.50
2023-02-06T10:23:24.370Z,45.20
2023-02-06T10:26:03.836Z,41.88
2023-02-06T10:28:33.770Z,39.70
2023-02-06T10:31:25.738Z,38.65
2023-02-06T10:34:04.895Z,38.53
2023-02-06T10:36:47.134Z,36.35
2023-02-06T10:39:40.623Z,37.97
2023-02-06T10:42:15.925Z,37.08
2023-02-06T10:44:51.580Z,36.42
2023-02-06T10:47:29.635Z,36.72
2023-02-06T10:50:02.427Z,35.20
2023-02-06T10:52:35.972Z,33.95
2023-02-06T10:55:14.557Z,30.75
2023-02-06T10:57:44.717Z,30.95
2023-02-06T11:00:19.079Z,33.80
2023-02-06T11:03:06.837Z,37.38
2023-02-06T11:05:37.095Z,37.47
2023-02-06T11:08:15.138Z,35.90
2023-02-06T11:10:43.872Z,37.40
2023-02-06T11:13:15.389Z,38.47
2023-02-06T11:15:50.479Z,41.30
2023-02-06T11:18:22.530Z,41.38
2023-02-06T11:20:54.258Z,41.33
2023-02-06T11:23:27.905Z,44.17
2023-02-06T11:26:09.101Z,41.25
2023-02-06T11:28:41.593Z,47.53
2023-02-06T11:31:11.990Z,47.58
2023-02-06T11:33:43.743Z,46.72
2023-02-06T11:36:25.895Z,51.25
2023-02-06T11:39:03.995Z,51.80
2023-02-06T11:41:33.489Z,52.80
2023-02-06T11:44:06.750Z,55.47
2023-02-06T11:46:36.812Z,57.17
2023-02-06T11:49:09.446Z,58.63
2023-02-06T11:51:52.712Z,57.78
2023-02-06T11:54:28.059Z,58.28
2023-02-06T11:57:03.488Z,56.20
2023-02-06T11:59:34.638Z,62.63
2023-02-06T12:02:07.121Z,62.72
2023-02-06T12:04:39.078Z,58.10
2023-02-06T12:07:14.119Z,61.92
2023-02-06T12:09:45.336Z,62.53
2023-02-06T12:12:20.919Z,64.95
2023-02-06T12:14:53.432Z,64.80
2023-02-06T12:17:27.332Z,68.05
2023-02-06T12:20:01.866Z,66.88
2023-02-06T12:22:35.746Z,66.15
2023-02-06T12:25:06.985Z,67.35
2023-02-06T12:27:39.355Z,69.63
2023-02-06T12:30:28.628Z,67.45
2023-02-06T12:33:03.619Z,71.40
2023-02-06T12:35:37.678Z,62.17
2023-02-06T12:38:13.991Z,62.85
2023-02-06T12:40:50.199Z,62.85
2023-02-06T12:43:20.202Z,63.25
2023-02-06T12:45:54.982Z,60.63
2023-02-06T12:48:29.515Z,58.58
2023-02-06T12:51:09.909Z,59.03
2023-02-06T12:53:42.208Z,60.45
2023-02-06T12:56:21.571Z,59.35
2023-02-06T12:58:54.630Z,62.67
2023-02-06T13:01:35.793Z,62.15
2023-02-06T13:04:06.582Z,65.78
2023-02-06T13:06:47.298Z,64.25
2023-02-06T13:09:21.105Z,63.17
2023-02-06T13:11:51.838Z,69.03
2023-02-06T13:14:23.242Z,72.68
2023-02-06T13:16:54.669Z,72.45
2023-02-06T13:19:30.325Z,71.03
2023-02-06T13:22:32.898Z,70.00
2023-02-06T13:25:03.631Z,74.20
2023-02-06T13:27:41.630Z,71.95
2023-02-06T13:30:47.240Z,70.20
2023-02-06T13:33:17.759Z,70.47
2023-02-06T13:35:57.233Z,66.63
2023-02-06T13:38:29.329Z,68.68
2023-02-06T13:41:34.232Z,67.68
2023-02-06T13:44:07.533Z,67.88
2023-02-06T13:46:53.497Z,67.78
2023-02-06T13:50:08.697Z,73.00
2023-02-06T13:52:41.220Z,74.25
2023-02-06T13:55:20.488Z,68.18
2023-02-06T13:57:59.177Z,67.93
2023-02-06T14:00:32.203Z,70.10
2023-02-06T14:03:07.425Z,66.00
2023-02-06T14:05:46.459Z,66.88
2023-02-06T14:08:22.356Z,71.28
2023-02-06T14:11:33.407Z,65.18
2023-02-06T14:14:17.747Z,72.55
2023-02-06T14:16:56.839Z,75.22
2023-02-06T14:19:32.670Z,72.57
2023-02-06T14:22:06.468Z,75.85
2023-02-06T14:24:51.771Z,73.97
2023-02-06T14:27:30.439Z,72.85
2023-02-06T14:30:06.378Z,71.65
2023-02-06T14:32:44.684Z,66.53
2023-02-06T14:35:22.939Z,71.63
2023-02-06T14:38:03.699Z,72.22
2023-02-06T14:40:36.580Z,73.18
2023-02-06T14:43:07.984Z,75.55
2023-02-06T14:46:31.090Z,75.60
2023-02-06T14:49:27.303Z,79.82
2023-02-06T14:51:56.346Z,81.15
2023-02-06T14:54:33.974Z,82.32
2023-02-06T14:57:04.763Z,79.38
2023-02-06T14:59:34.506Z,83.75
2023-02-06T15:02:15.472Z,82.93
2023-02-06T15:04:48.646Z,82.68
2023-02-06T15:07:24.594Z,83.03
2023-02-06T15:09:59.944Z,84.80
2023-02-06T15:12:30.344Z,89.60
2023-02-06T15:15:04.634Z,87.53
2023-02-06T15:17:34.546Z,88.15
2023-02-06T15:20:26.268Z,84.35
2023-02-06T15:23:04.978Z,83.45
2023-02-06T15:25:55.292Z,83.43
2023-02-06T15:28:26.704Z,79.25
2023-02-06T15:30:58.992Z,78.75
2023-02-06T15:33:29.694Z,83.13
2023-02-06T15:36:02.504Z,82.28
2023-02-06T15:38:33.493Z,82.75
2023-02-06T15:41:04.789Z,81.07
2023-02-06T15:43:34.414Z,78.70
2023-02-06T15:46:04.985Z,80.38
2023-02-06T15:48:36.784Z,78.18
2023-02-06T15:51:22.220Z,80.32
2023-02-06T15:53:53.307Z,76.57
2023-02-06T15:56:25.180Z,78.10
2023-02-06T15:58:59.375Z,78.78
2023-02-06T16:01:31.820Z,75.32
2023-02-06T16:04:05.006Z,74.55
2023-02-06T16:06:35.973Z,71.53
2023-02-06T16:09:08.528Z,77.85
2023-02-06T16:11:50.667Z,71.15
2023-02-06T16:14:25.969Z,68.70
2023-02-06T16:17:02.352Z,68.50
2023-02-06T16:19:47.974Z,71.65
2023-02-06T16:22:23.864Z,68.97
2023-02-06T16:24:55.715Z,71.65
2023-02-06T16:27:26.553Z,67.03
2023-02-06T16:29:57.473Z,64.43
2023-02-06T16:32:31.272Z,68.05
2023-02-06T16:35:01.410Z,67.43
2023-02-06T16:37:32.193Z,55.83
2023-02-06T16:40:01.430Z,62.65
2023-02-06T16:42:35.499Z,63.87
2023-02-06T16:45:09.460Z,62.83
2023-02-06T16:47:38.407Z,65.20
2023-02-06T16:50:10.190Z,65.07
2023-02-06T16:52:42.780Z,62.10
2023-02-06T16:55:19.335Z,67.97
2023-02-06T16:57:50.307Z,64.28
2023-02-06T17:02:52.095Z,66.90
2023-02-06T17:05:22.669Z,64.88
2023-02-06T17:07:53.856Z,70.57
2023-02-06T17:10:25.321Z,69.82
2023-02-06T17:12:54.394Z,68.20
2023-02-06T17:15:23.413Z,66.53
2023-02-06T17:17:54.681Z,66.70
2023-02-06T17:20:29.677Z,68.38
2023-02-06T17:22:59.844Z,67.97
2023-02-06T17:25:28.987Z,70.60
2023-02-06T17:27:58.256Z,70.95
2023-02-06T17:30:27.883Z,69.73
2023-02-06T17:32:57.969Z,73.85
2023-02-06T17:35:26.910Z,74.63
2023-02-06T17:37:55.557Z,71.70
2023-02-06T17:40:27.362Z,73.18
2023-02-06T17:42:56.977Z,72.00
2023-02-06T17:45:26.324Z,75.60
2023-02-06T17:47:55.670Z,64.40
2023-02-06T17:50:25.933Z,77.73
2023-02-06T17:52:56.362Z,75.93
2023-02-06T17:55:27.461Z,66.15
2023-02-06T17:57:56.660Z,78.43
2023-02-06T18:00:26.414Z,80.22
2023-02-06T18:02:56.768Z,80.78
2023-02-06T18:05:26.226Z,83.15
2023-02-06T18:07:55.155Z,66.63
2023-02-06T18:10:26.924Z,81.33
2023-02-06T18:12:56.151Z,79.95
2023-02-06T18:15:25.294Z,77.22
2023-02-06T18:17:55.124Z,84.43
2023-02-06T18:20:24.072Z,83.03
2023-02-06T18:22:52.896Z,86.43
2023-02-06T18:25:22.347Z,85.95
2023-02-06T18:27:53.135Z,85.15
2023-02-06T18:30:22.450Z,89.43
2023-02-06T18:32:51.788Z,89.80
2023-02-06T18:35:20.872Z,90.97
2023-02-06T18:37:50.209Z,87.90
2023-02-06T18:40:19.601Z,91.20
2023-02-06T18:42:54.628Z,90.17
2023-02-06T18:45:31.213Z,92.03
2023-02-06T18:48:00.240Z,89.38
2023-02-06T18:50:29.751Z,90.15
2023-02-06T18:52:59.310Z,93.47
2023-02-06T18:55:28.086Z,92.10
2023-02-06T18:57:57.130Z,71.90
2023-02-06T19:00:27.818Z,92.00
2023-02-06T19:02:59.107Z,98.03
2023-02-06T19:05:29.143Z,98.13
2023-02-06T19:07:57.967Z,96.85
2023-02-06T19:10:27.110Z,96.27
2023-02-06T19:12:56.262Z,105.68
2023-02-06T19:15:25.360Z,100.60
2023-02-06T19:17:55.932Z,77.22
2023-02-06T19:20:25.288Z,98.28
2023-02-06T19:22:54.208Z,108.50
2023-02-06T19:25:23.555Z,105.10
2023-02-06T19:27:52.636Z,108.70
2023-02-06T19:30:21.758Z,101.70
2023-02-06T19:32:51.623Z,81.88
2023-02-06T19:35:22.129Z,109.65
2023-02-06T19:37:51.959Z,108.05
2023-02-06T19:45:20.100Z,103.28
2023-02-06T19:47:49.178Z,90.38
2023-02-06T19:50:18.326Z,106.20
2023-02-06T19:52:48.387Z,107.68
2023-02-06T19:55:17.514Z,109.30
2023-02-06T19:57:46.636Z,113.22
2023-02-06T20:00:16.288Z,111.40
2023-02-06T20:02:46.481Z,110.75
2023-02-06T20:05:15.520Z,111.25
2023-02-06T20:07:44.302Z,106.63
2023-02-06T20:10:14.715Z,103.63
2023-02-06T20:12:43.668Z,103.45
2023-02-06T20:15:13.234Z,106.93
2023-02-06T20:17:42.468Z,110.55
2023-02-06T20:20:12.903Z,111.23
2023-02-06T20:25:10.982Z,100.72
2023-02-06T20:27:41.526Z,105.38
2023-02-06T20:30:11.744Z,105.88
2023-02-06T20:32:41.176Z,102.82
2023-02-06T20:35:10.432Z,83.35
2023-02-06T20:37:40.018Z,98.45
2023-02-06T20:40:10.847Z,102.65
2023-02-06T20:42:44.800Z,100.10
2023-02-06T20:45:13.901Z,100.95
2023-02-06T20:47:42.907Z,103.70
2023-02-06T20:50:12.812Z,106.40
2023-02-06T20:52:41.563Z,100.65
2023-02-06T20:55:11.029Z,101.78
2023-02-06T20:57:41.449Z,99.35
2023-02-06T21:00:13.256Z,98.43
2023-02-06T21:02:42.268Z,100.13
2023-02-06T21:05:11.251Z,96.07
2023-02-06T21:07:40.275Z,97.28
2023-02-06T21:10:09.735Z,74.57
2023-02-06T21:12:38.727Z,79.85
2023-02-06T21:15:10.434Z,95.95
2023-02-06T21:17:39.489Z,92.22
2023-02-06T21:20:09.757Z,92.88
2023-02-06T21:22:38.479Z,91.22
2023-02-06T21:25:08.101Z,93.82
2023-02-06T21:27:37.446Z,90.05
2023-02-06T21:30:09.325Z,63.40
2023-02-06T21:32:38.327Z,88.10
2023-02-06T21:35:09.717Z,88.30
2023-02-06T21:37:39.366Z,86.55
2023-02-06T21:40:08.761Z,86.55
2023-02-06T21:42:37.719Z,88.18
2023-02-06T21:45:09.483Z,88.18
2023-02-06T21:47:38.531Z,95.28
2023-02-06T21:50:08.529Z,95.35
2023-02-06T21:52:37.472Z,94.28
2023-02-06T21:55:07.702Z,100.45
2023-02-06T21:57:36.854Z,98.50
2023-02-06T22:00:06.759Z,106.07
2023-02-06T22:02:42.984Z,101.55
2023-02-06T22:05:12.016Z,103.90
2023-02-06T22:07:40.731Z,101.32
2023-02-06T22:10:11.003Z,102.93
2023-02-06T22:12:40.151Z,95.85
2023-02-06T22:15:10.233Z,96.03
2023-02-06T22:20:10.030Z,91.18
2023-02-06T22:22:38.832Z,91.82
2023-02-06T22:25:08.614Z,70.60
2023-02-06T22:27:37.598Z,93.85
2023-02-06T22:30:07.403Z,95.78
2023-02-06T22:32:38.151Z,92.82
2023-02-06T22:35:08.880Z,97.60
2023-02-06T22:37:37.482Z,95.18
2023-02-06T22:40:07.402Z,91.72
2023-02-06T22:42:36.606Z,94.55
2023-02-06T22:45:06.396Z,71.40
2023-02-06T22:47:35.463Z,88.55
2023-02-06T22:50:04.490Z,87.55
2023-02-06T22:52:52.225Z,80.32
2023-02-06T22:55:21.250Z,81.75
2023-02-06T22:57:50.121Z,78.22
2023-02-06T23:00:19.311Z,80.22
2023-02-06T23:02:49.545Z,77.25
2023-02-06T23:25:21.556Z,68.88
2023-02-06T23:27:50.784Z,70.18
2023-02-06T23:30:23.060Z,71.18
2023-02-06T23:32:52.250Z,70.60
2023-02-06T23:35:22.374Z,69.20
2023-02-06T23:37:51.097Z,68.45
2023-02-06T23:40:22.097Z,65.40
2023-02-06T23:42:51.156Z,67.53
2023-02-06T23:45:20.205Z,65.63
2023-02-06T23:47:49.101Z,70.45
2023-02-06T23:50:18.348Z,70.85
2023-02-06T23:52:47.005Z,69.20
2023-02-06T23:55:15.986Z,67.22
2023-02-06T23:57:46.640Z,66.82
